sensor_id;sensor_type;location;lat;lon;timestamp;P1;durP1;ratioP1;P2;durP2;ratioP2
32918;SDS011;19280;42.646;21.150;2023-02-24T00:01:31;177.93;;;86.25;;
32918;SDS011;19280;42.646;21.150;2023-02-24T00:04:01;190.40;;;87.85;;
32918;SDS011;19280;42.646;21.150;2023-02-24T00:06:28;202.82;;;92.43;;
32918;SDS011;19280;42.646;21.150;2023-02-24T00:09:05;220.93;;;99.20;;
32918;SDS011;19280;42.646;21.150;2023-02-24T00:11:32;234.98;;;104.80;;
32918;SDS011;19280;42.646;21.150;2023-02-24T00:13:58;247.27;;;116.63;;
32918;SDS011;19280;42.646;21.150;2023-02-24T00:16:24;229.98;;;109.22;;
32918;SDS011;19280;42.646;21.150;2023-02-24T00:18:51;239.90;;;112.60;;
32918;SDS011;19280;42.646;21.150;2023-02-24T00:21:17;248.25;;;122.43;;
32918;SDS011;19280;42.646;21.150;2023-02-24T00:23:44;253.00;;;121.32;;
32918;SDS011;19280;42.646;21.150;2023-02-24T00:26:12;245.75;;;119.85;;
32918;SDS011;19280;42.646;21.150;2023-02-24T00:28:38;232.35;;;114.18;;
32918;SDS011;19280;42.646;21.150;2023-02-24T00:31:07;224.80;;;113.57;;
32918;SDS011;19280;42.646;21.150;2023-02-24T00:33:34;237.25;;;111.40;;
32918;SDS011;19280;42.646;21.150;2023-02-24T00:36:19;217.40;;;112.03;;
32918;SDS011;19280;42.646;21.150;2023-02-24T00:38:49;131.50;;;66.00;;
32918;SDS011;19280;42.646;21.150;2023-02-24T00:41:23;137.85;;;63.97;;
32918;SDS011;19280;42.646;21.150;2023-02-24T00:43:55;108.30;;;54.53;;
32918;SDS011;19280;42.646;21.150;2023-02-24T00:46:23;117.82;;;55.05;;
32918;SDS011;19280;42.646;21.150;2023-02-24T00:48:52;109.75;;;55.60;;
32918;SDS011;19280;42.646;21.150;2023-02-24T00:51:20;110.60;;;52.90;;
32918;SDS011;19280;42.646;21.150;2023-02-24T00:53:52;90.93;;;47.20;;
32918;SDS011;19280;42.646;21.150;2023-02-24T00:56:22;85.00;;;43.65;;
32918;SDS011;19280;42.646;21.150;2023-02-24T00:58:49;109.95;;;51.67;;
32918;SDS011;19280;42.646;21.150;2023-02-24T01:01:18;107.75;;;52.22;;
32918;SDS011;19280;42.646;21.150;2023-02-24T01:03:46;110.05;;;52.00;;
32918;SDS011;19280;42.646;21.150;2023-02-24T01:06:18;112.70;;;53.40;;
32918;SDS011;19280;42.646;21.150;2023-02-24T01:08:45;102.72;;;50.47;;
32918;SDS011;19280;42.646;21.150;2023-02-24T01:11:15;113.60;;;55.60;;
32918;SDS011;19280;42.646;21.150;2023-02-24T01:14:07;109.05;;;57.33;;
32918;SDS011;19280;42.646;21.150;2023-02-24T01:16:34;125.93;;;59.92;;
32918;SDS011;19280;42.646;21.150;2023-02-24T01:19:00;125.22;;;61.25;;
32918;SDS011;19280;42.646;21.150;2023-02-24T01:21:26;121.32;;;58.30;;
32918;SDS011;19280;42.646;21.150;2023-02-24T01:23:52;108.97;;;54.78;;
32918;SDS011;19280;42.646;21.150;2023-02-24T01:26:19;108.30;;;51.08;;
32918;SDS011;19280;42.646;21.150;2023-02-24T01:28:45;102.00;;;47.30;;
32918;SDS011;19280;42.646;21.150;2023-02-24T01:31:12;86.93;;;41.63;;
32918;SDS011;19280;42.646;21.150;2023-02-24T01:33:41;75.68;;;38.70;;
32918;SDS011;19280;42.646;21.150;2023-02-24T01:36:16;76.30;;;40.90;;
32918;SDS011;19280;42.646;21.150;2023-02-24T01:38:43;92.90;;;48.20;;
32918;SDS011;19280;42.646;21.150;2023-02-24T01:41:10;96.85;;;48.97;;
32918;SDS011;19280;42.646;21.150;2023-02-24T01:46:26;87.25;;;42.67;;
32918;SDS011;19280;42.646;21.150;2023-02-24T01:48:53;90.13;;;43.47;;
32918;SDS011;19280;42.646;21.150;2023-02-24T01:51:20;83.07;;;43.25;;
32918;SDS011;19280;42.646;21.150;2023-02-24T01:53:46;103.13;;;49.30;;
32918;SDS011;19280;42.646;21.150;2023-02-24T01:56:14;107.75;;;52.10;;
32918;SDS011;19280;42.646;21.150;2023-02-24T01:58:40;89.65;;;48.15;;
32918;SDS011;19280;42.646;21.150;2023-02-24T02:01:07;94.00;;;45.20;;
32918;SDS011;19280;42.646;21.150;2023-02-24T02:03:34;86.18;;;44.55;;
32918;SDS011;19280;42.646;21.150;2023-02-24T02:06:02;86.80;;;45.40;;
32918;SDS011;19280;42.646;21.150;2023-02-24T02:08:28;80.13;;;42.92;;
32918;SDS011;19280;42.646;21.150;2023-02-24T02:10:57;80.43;;;41.47;;
32918;SDS011;19280;42.646;21.150;2023-02-24T02:13:25;79.53;;;42.40;;
32918;SDS011;19280;42.646;21.150;2023-02-24T02:18:43;82.13;;;41.92;;
32918;SDS011;19280;42.646;21.150;2023-02-24T02:39:32;76.30;;;36.95;;
32918;SDS011;19280;42.646;21.150;2023-02-24T02:42:19;73.03;;;38.22;;
32918;SDS011;19280;42.646;21.150;2023-02-24T02:49:53;92.03;;;43.65;;
32918;SDS011;19280;42.646;21.150;2023-02-24T02:52:26;79.90;;;40.72;;
32918;SDS011;19280;42.646;21.150;2023-02-24T02:54:55;91.43;;;42.35;;
32918;SDS011;19280;42.646;21.150;2023-02-24T02:57:28;78.40;;;40.58;;
32918;SDS011;19280;42.646;21.150;2023-02-24T02:59:59;75.72;;;38.58;;
32918;SDS011;19280;42.646;21.150;2023-02-24T03:02:32;75.82;;;38.55;;
32918;SDS011;19280;42.646;21.150;2023-02-24T03:05:04;65.22;;;34.53;;
32918;SDS011;19280;42.646;21.150;2023-02-24T03:07:34;66.75;;;36.05;;
32918;SDS011;19280;42.646;21.150;2023-02-24T03:10:05;61.40;;;35.25;;
32918;SDS011;19280;42.646;21.150;2023-02-24T03:12:34;82.03;;;42.40;;
32918;SDS011;19280;42.646;21.150;2023-02-24T03:15:04;91.40;;;47.13;;
32918;SDS011;19280;42.646;21.150;2023-02-24T03:17:33;69.65;;;36.53;;
32918;SDS011;19280;42.646;21.150;2023-02-24T03:20:15;67.30;;;36.55;;
32918;SDS011;19280;42.646;21.150;2023-02-24T03:22:48;74.57;;;38.05;;
32918;SDS011;19280;42.646;21.150;2023-02-24T03:25:20;79.13;;;40.88;;
32918;SDS011;19280;42.646;21.150;2023-02-24T03:27:53;72.20;;;37.63;;
32918;SDS011;19280;42.646;21.150;2023-02-24T03:30:23;76.78;;;41.75;;
32918;SDS011;19280;42.646;21.150;2023-02-24T03:32:55;75.30;;;40.53;;
32918;SDS011;19280;42.646;21.150;2023-02-24T03:35:24;110.53;;;57.30;;
32918;SDS011;19280;42.646;21.150;2023-02-24T03:37:51;107.53;;;55.33;;
32918;SDS011;19280;42.646;21.150;2023-02-24T03:40:19;139.32;;;71.38;;
32918;SDS011;19280;42.646;21.150;2023-02-24T03:42:47;156.55;;;78.47;;
32918;SDS011;19280;42.646;21.150;2023-02-24T03:45:15;159.80;;;79.35;;
32918;SDS011;19280;42.646;21.150;2023-02-24T03:47:41;150.38;;;79.38;;
32918;SDS011;19280;42.646;21.150;2023-02-24T03:50:14;144.80;;;77.45;;
32918;SDS011;19280;42.646;21.150;2023-02-24T03:55:25;152.70;;;77.45;;
32918;SDS011;19280;42.646;21.150;2023-02-24T04:00:36;147.45;;;75.20;;
32918;SDS011;19280;42.646;21.150;2023-02-24T04:03:12;148.93;;;71.97;;
32918;SDS011;19280;42.646;21.150;2023-02-24T04:05:43;151.00;;;74.78;;
32918;SDS011;19280;42.646;21.150;2023-02-24T04:08:12;133.15;;;69.15;;
32918;SDS011;19280;42.646;21.150;2023-02-24T04:13:09;144.98;;;73.22;;
32918;SDS011;19280;42.646;21.150;2023-02-24T04:15:41;144.05;;;70.60;;
32918;SDS011;19280;42.646;21.150;2023-02-24T04:20:38;165.38;;;81.00;;
32918;SDS011;19280;42.646;21.150;2023-02-24T04:23:11;148.98;;;78.35;;
32918;SDS011;19280;42.646;21.150;2023-02-24T04:25:40;153.98;;;80.07;;
32918;SDS011;19280;42.646;21.150;2023-02-24T04:28:07;195.52;;;101.25;;
32918;SDS011;19280;42.646;21.150;2023-02-24T04:30:37;211.25;;;112.28;;
32918;SDS011;19280;42.646;21.150;2023-02-24T04:33:05;186.00;;;94.55;;
32918;SDS011;19280;42.646;21.150;2023-02-24T04:35:31;151.65;;;79.50;;
32918;SDS011;19280;42.646;21.150;2023-02-24T04:37:58;156.90;;;77.97;;
32918;SDS011;19280;42.646;21.150;2023-02-24T04:40:24;146.05;;;76.82;;
32918;SDS011;19280;42.646;21.150;2023-02-24T04:42:51;133.85;;;66.88;;
32918;SDS011;19280;42.646;21.150;2023-02-24T04:45:22;147.40;;;69.32;;
32918;SDS011;19280;42.646;21.150;2023-02-24T04:47:49;134.75;;;64.57;;
32918;SDS011;19280;42.646;21.150;2023-02-24T04:50:17;112.15;;;60.63;;
32918;SDS011;19280;42.646;21.150;2023-02-24T04:52:57;140.75;;;71.05;;
32918;SDS011;19280;42.646;21.150;2023-02-24T04:55:27;141.30;;;72.22;;
32918;SDS011;19280;42.646;21.150;2023-02-24T04:57:57;132.60;;;69.50;;
32918;SDS011;19280;42.646;21.150;2023-02-24T05:00:23;139.55;;;67.47;;
32918;SDS011;19280;42.646;21.150;2023-02-24T05:02:57;126.05;;;62.67;;
32918;SDS011;19280;42.646;21.150;2023-02-24T05:05:26;131.15;;;67.70;;
32918;SDS011;19280;42.646;21.150;2023-02-24T05:07:57;134.57;;;67.70;;
32918;SDS011;19280;42.646;21.150;2023-02-24T05:10:33;126.97;;;64.90;;
32918;SDS011;19280;42.646;21.150;2023-02-24T05:13:00;144.98;;;67.45;;
32918;SDS011;19280;42.646;21.150;2023-02-24T05:15:26;121.82;;;61.75;;
32918;SDS011;19280;42.646;21.150;2023-02-24T05:17:58;132.10;;;65.30;;
32918;SDS011;19280;42.646;21.150;2023-02-24T05:20:25;131.93;;;65.18;;
32918;SDS011;19280;42.646;21.150;2023-02-24T05:23:10;137.32;;;65.00;;
32918;SDS011;19280;42.646;21.150;2023-02-24T05:25:36;131.00;;;65.72;;
32918;SDS011;19280;42.646;21.150;2023-02-24T05:28:05;139.07;;;70.75;;
32918;SDS011;19280;42.646;21.150;2023-02-24T05:30:31;461.73;;;169.75;;
32918;SDS011;19280;42.646;21.150;2023-02-24T05:32:57;336.25;;;131.13;;
32918;SDS011;19280;42.646;21.150;2023-02-24T05:35:23;340.40;;;131.55;;
32918;SDS011;19280;42.646;21.150;2023-02-24T05:37:50;327.20;;;125.75;;
32918;SDS011;19280;42.646;21.150;2023-02-24T05:40:16;244.18;;;98.93;;
32918;SDS011;19280;42.646;21.150;2023-02-24T05:42:47;188.35;;;82.25;;
32918;SDS011;19280;42.646;21.150;2023-02-24T05:45:15;309.05;;;128.18;;
32918;SDS011;19280;42.646;21.150;2023-02-24T05:47:42;332.35;;;133.75;;
32918;SDS011;19280;42.646;21.150;2023-02-24T05:50:11;368.58;;;143.85;;
32918;SDS011;19280;42.646;21.150;2023-02-24T05:52:37;226.48;;;96.00;;
32918;SDS011;19280;42.646;21.150;2023-02-24T05:55:04;129.45;;;64.10;;
32918;SDS011;19280;42.646;21.150;2023-02-24T05:57:31;138.60;;;67.30;;
32918;SDS011;19280;42.646;21.150;2023-02-24T06:00:00;107.22;;;55.95;;
32918;SDS011;19280;42.646;21.150;2023-02-24T06:02:36;113.70;;;59.00;;
32918;SDS011;19280;42.646;21.150;2023-02-24T06:05:02;78.85;;;44.00;;
32918;SDS011;19280;42.646;21.150;2023-02-24T06:07:32;73.40;;;41.08;;
32918;SDS011;19280;42.646;21.150;2023-02-24T06:09:59;103.47;;;50.33;;
32918;SDS011;19280;42.646;21.150;2023-02-24T06:12:32;110.35;;;56.85;;
32918;SDS011;19280;42.646;21.150;2023-02-24T06:14:58;148.93;;;71.03;;
32918;SDS011;19280;42.646;21.150;2023-02-24T06:17:25;155.45;;;71.05;;
32918;SDS011;19280;42.646;21.150;2023-02-24T06:19:52;123.05;;;59.83;;
32918;SDS011;19280;42.646;21.150;2023-02-24T06:22:20;125.25;;;60.72;;
32918;SDS011;19280;42.646;21.150;2023-02-24T06:24:46;136.85;;;73.68;;
32918;SDS011;19280;42.646;21.150;2023-02-24T06:27:14;121.57;;;63.40;;
32918;SDS011;19280;42.646;21.150;2023-02-24T06:29:47;108.50;;;58.47;;
32918;SDS011;19280;42.646;21.150;2023-02-24T06:32:20;107.53;;;59.67;;
32918;SDS011;19280;42.646;21.150;2023-02-24T06:34:47;114.25;;;63.42;;
32918;SDS011;19280;42.646;21.150;2023-02-24T06:37:13;126.60;;;70.57;;
32918;SDS011;19280;42.646;21.150;2023-02-24T06:39:40;216.90;;;115.90;;
32918;SDS011;19280;42.646;21.150;2023-02-24T06:42:07;157.27;;;84.95;;
32918;SDS011;19280;42.646;21.150;2023-02-24T06:44:38;93.95;;;59.47;;
32918;SDS011;19280;42.646;21.150;2023-02-24T06:47:06;92.95;;;56.88;;
32918;SDS011;19280;42.646;21.150;2023-02-24T06:49:32;95.65;;;55.78;;
32918;SDS011;19280;42.646;21.150;2023-02-24T06:51:58;110.55;;;68.43;;
32918;SDS011;19280;42.646;21.150;2023-02-24T06:54:26;94.93;;;58.22;;
32918;SDS011;19280;42.646;21.150;2023-02-24T06:56:54;89.82;;;54.28;;
32918;SDS011;19280;42.646;21.150;2023-02-24T06:59:21;80.72;;;53.25;;
32918;SDS011;19280;42.646;21.150;2023-02-24T07:01:52;90.78;;;52.50;;
32918;SDS011;19280;42.646;21.150;2023-02-24T07:04:19;90.85;;;55.10;;
32918;SDS011;19280;42.646;21.150;2023-02-24T07:06:49;89.50;;;54.53;;
32918;SDS011;19280;42.646;21.150;2023-02-24T07:09:17;100.30;;;55.25;;
32918;SDS011;19280;42.646;21.150;2023-02-24T07:11:45;88.22;;;53.05;;
32918;SDS011;19280;42.646;21.150;2023-02-24T07:14:13;72.25;;;44.90;;
32918;SDS011;19280;42.646;21.150;2023-02-24T07:16:40;68.53;;;40.03;;
32918;SDS011;19280;42.646;21.150;2023-02-24T07:19:12;64.93;;;40.83;;
32918;SDS011;19280;42.646;21.150;2023-02-24T07:21:40;64.88;;;40.20;;
32918;SDS011;19280;42.646;21.150;2023-02-24T07:24:14;61.78;;;41.47;;
32918;SDS011;19280;42.646;21.150;2023-02-24T07:26:57;65.78;;;39.63;;
32918;SDS011;19280;42.646;21.150;2023-02-24T07:29:24;57.05;;;37.30;;
32918;SDS011;19280;42.646;21.150;2023-02-24T07:31:50;64.10;;;36.47;;
32918;SDS011;19280;42.646;21.150;2023-02-24T07:34:20;55.92;;;36.13;;
32918;SDS011;19280;42.646;21.150;2023-02-24T07:36:48;54.08;;;35.95;;
32918;SDS011;19280;42.646;21.150;2023-02-24T07:39:15;55.42;;;35.83;;
32918;SDS011;19280;42.646;21.150;2023-02-24T07:41:41;53.65;;;34.40;;
32918;SDS011;19280;42.646;21.150;2023-02-24T07:46:39;51.20;;;35.42;;
32918;SDS011;19280;42.646;21.150;2023-02-24T07:49:07;49.75;;;34.20;;
32918;SDS011;19280;42.646;21.150;2023-02-24T07:51:36;46.00;;;29.83;;
32918;SDS011;19280;42.646;21.150;2023-02-24T07:54:02;46.97;;;29.73;;
32918;SDS011;19280;42.646;21.150;2023-02-24T07:56:29;50.08;;;30.98;;
32918;SDS011;19280;42.646;21.150;2023-02-24T07:59:01;50.10;;;32.35;;
32918;SDS011;19280;42.646;21.150;2023-02-24T08:01:28;55.22;;;32.63;;
32918;SDS011;19280;42.646;21.150;2023-02-24T08:03:55;57.10;;;32.50;;
32918;SDS011;19280;42.646;21.150;2023-02-24T08:06:22;61.15;;;35.17;;
32918;SDS011;19280;42.646;21.150;2023-02-24T08:08:52;47.47;;;31.13;;
32918;SDS011;19280;42.646;21.150;2023-02-24T08:11:44;51.70;;;30.38;;
32918;SDS011;19280;42.646;21.150;2023-02-24T08:14:12;47.70;;;29.52;;
32918;SDS011;19280;42.646;21.150;2023-02-24T08:16:39;50.22;;;29.50;;
32918;SDS011;19280;42.646;21.150;2023-02-24T08:19:05;49.63;;;30.20;;
32918;SDS011;19280;42.646;21.150;2023-02-24T08:21:32;43.97;;;29.40;;
32918;SDS011;19280;42.646;21.150;2023-02-24T08:24:06;61.47;;;32.70;;
32918;SDS011;19280;42.646;21.150;2023-02-24T08:26:33;54.53;;;30.92;;
32918;SDS011;19280;42.646;21.150;2023-02-24T08:29:09;52.00;;;32.83;;
32918;SDS011;19280;42.646;21.150;2023-02-24T08:31:35;48.53;;;30.20;;
32918;SDS011;19280;42.646;21.150;2023-02-24T08:34:01;28.92;;;17.50;;
32918;SDS011;19280;42.646;21.150;2023-02-24T08:36:29;24.77;;;16.13;;
32918;SDS011;19280;42.646;21.150;2023-02-24T08:38:55;28.35;;;16.52;;
32918;SDS011;19280;42.646;21.150;2023-02-24T08:41:23;22.67;;;14.40;;
32918;SDS011;19280;42.646;21.150;2023-02-24T08:44:09;22.02;;;14.40;;
32918;SDS011;19280;42.646;21.150;2023-02-24T08:46:35;27.10;;;14.93;;
32918;SDS011;19280;42.646;21.150;2023-02-24T08:49:02;21.95;;;14.35;;
32918;SDS011;19280;42.646;21.150;2023-02-24T08:51:35;25.52;;;15.75;;
32918;SDS011;19280;42.646;21.150;2023-02-24T08:54:08;23.73;;;15.20;;
32918;SDS011;19280;42.646;21.150;2023-02-24T08:56:36;22.58;;;15.88;;
32918;SDS011;19280;42.646;21.150;2023-02-24T08:59:07;28.40;;;15.15;;
32918;SDS011;19280;42.646;21.150;2023-02-24T09:01:39;30.33;;;13.98;;
32918;SDS011;19280;42.646;21.150;2023-02-24T09:04:18;18.38;;;12.15;;
32918;SDS011;19280;42.646;21.150;2023-02-24T09:06:50;21.90;;;13.45;;
32918;SDS011;19280;42.646;21.150;2023-02-24T09:09:21;21.20;;;13.00;;
32918;SDS011;19280;42.646;21.150;2023-02-24T09:11:52;18.02;;;11.10;;
32918;SDS011;19280;42.646;21.150;2023-02-24T09:14:22;23.80;;;14.82;;
32918;SDS011;19280;42.646;21.150;2023-02-24T09:16:50;25.17;;;14.30;;
32918;SDS011;19280;42.646;21.150;2023-02-24T09:19:38;18.98;;;12.48;;
32918;SDS011;19280;42.646;21.150;2023-02-24T09:22:11;16.17;;;10.25;;
32918;SDS011;19280;42.646;21.150;2023-02-24T09:27:45;16.13;;;10.38;;
32918;SDS011;19280;42.646;21.150;2023-02-24T09:30:16;21.48;;;12.55;;
32918;SDS011;19280;42.646;21.150;2023-02-24T09:33:11;17.08;;;10.48;;
32918;SDS011;19280;42.646;21.150;2023-02-24T09:35:52;17.02;;;11.65;;
32918;SDS011;19280;42.646;21.150;2023-02-24T09:38:27;21.55;;;12.68;;
32918;SDS011;19280;42.646;21.150;2023-02-24T09:41:19;25.55;;;12.07;;
32918;SDS011;19280;42.646;21.150;2023-02-24T09:43:55;22.40;;;11.25;;
32918;SDS011;19280;42.646;21.150;2023-02-24T09:46:24;21.95;;;12.05;;
32918;SDS011;19280;42.646;21.150;2023-02-24T09:48:53;20.38;;;12.02;;
32918;SDS011;19280;42.646;21.150;2023-02-24T09:51:20;18.40;;;11.80;;
32918;SDS011;19280;42.646;21.150;2023-02-24T09:53:53;18.30;;;12.20;;
32918;SDS011;19280;42.646;21.150;2023-02-24T09:56:37;17.02;;;11.35;;
32918;SDS011;19280;42.646;21.150;2023-02-24T09:59:17;26.20;;;14.25;;
32918;SDS011;19280;42.646;21.150;2023-02-24T10:01:58;24.35;;;15.00;;
32918;SDS011;19280;42.646;21.150;2023-02-24T10:04:40;26.45;;;15.65;;
32918;SDS011;19280;42.646;21.150;2023-02-24T10:10:16;23.50;;;15.07;;
32918;SDS011;19280;42.646;21.150;2023-02-24T10:12:55;30.48;;;16.27;;
32918;SDS011;19280;42.646;21.150;2023-02-24T10:15:25;24.42;;;15.57;;
32918;SDS011;19280;42.646;21.150;2023-02-24T10:24:46;34.15;;;14.80;;
32918;SDS011;19280;42.646;21.150;2023-02-24T10:35:07;27.92;;;12.40;;
32918;SDS011;19280;42.646;21.150;2023-02-24T10:37:38;20.33;;;11.00;;
32918;SDS011;19280;42.646;21.150;2023-02-24T10:40:04;26.05;;;11.23;;
32918;SDS011;19280;42.646;21.150;2023-02-24T10:42:34;23.70;;;10.30;;
32918;SDS011;19280;42.646;21.150;2023-02-24T10:45:06;24.27;;;9.43;;
32918;SDS011;19280;42.646;21.150;2023-02-24T10:47:36;23.25;;;10.20;;
32918;SDS011;19280;42.646;21.150;2023-02-24T10:50:54;18.02;;;7.68;;
32918;SDS011;19280;42.646;21.150;2023-02-24T10:53:00;20.63;;;9.50;;
32918;SDS011;19280;42.646;21.150;2023-02-24T10:58:03;20.10;;;8.18;;
32918;SDS011;19280;42.646;21.150;2023-02-24T11:00:37;26.55;;;8.80;;
32918;SDS011;19280;42.646;21.150;2023-02-24T11:03:24;26.23;;;9.15;;
32918;SDS011;19280;42.646;21.150;2023-02-24T11:06:02;19.48;;;8.18;;
32918;SDS011;19280;42.646;21.150;2023-02-24T11:08:30;23.10;;;6.03;;
32918;SDS011;19280;42.646;21.150;2023-02-24T11:11:22;15.63;;;7.97;;
32918;SDS011;19280;42.646;21.150;2023-02-24T11:13:53;22.20;;;8.70;;
32918;SDS011;19280;42.646;21.150;2023-02-24T11:19:33;23.88;;;8.27;;
32918;SDS011;19280;42.646;21.150;2023-02-24T11:22:02;23.10;;;6.53;;
32918;SDS011;19280;42.646;21.150;2023-02-24T11:24:29;18.55;;;4.63;;
32918;SDS011;19280;42.646;21.150;2023-02-24T11:26:55;27.70;;;5.07;;
32918;SDS011;19280;42.646;21.150;2023-02-24T11:42:18;26.40;;;9.10;;
32918;SDS011;19280;42.646;21.150;2023-02-24T11:45:20;23.05;;;5.72;;
32918;SDS011;19280;42.646;21.150;2023-02-24T11:47:46;21.55;;;7.13;;
32918;SDS011;19280;42.646;21.150;2023-02-24T11:52:52;24.35;;;7.25;;
32918;SDS011;19280;42.646;21.150;2023-02-24T11:58:22;35.58;;;7.25;;
32918;SDS011;19280;42.646;21.150;2023-02-24T12:01:00;29.98;;;6.68;;
32918;SDS011;19280;42.646;21.150;2023-02-24T12:03:32;20.38;;;5.72;;
32918;SDS011;19280;42.646;21.150;2023-02-24T12:06:04;40.35;;;8.90;;
32918;SDS011;19280;42.646;21.150;2023-02-24T12:08:34;25.13;;;6.25;;
32918;SDS011;19280;42.646;21.150;2023-02-24T12:11:02;36.22;;;8.05;;
32918;SDS011;19280;42.646;21.150;2023-02-24T12:13:34;53.75;;;19.42;;
32918;SDS011;19280;42.646;21.150;2023-02-24T12:16:03;28.98;;;8.23;;
32918;SDS011;19280;42.646;21.150;2023-02-24T12:23:38;22.92;;;6.55;;
32918;SDS011;19280;42.646;21.150;2023-02-24T12:28:40;32.35;;;7.78;;
32918;SDS011;19280;42.646;21.150;2023-02-24T12:39:21;29.00;;;6.60;;
32918;SDS011;19280;42.646;21.150;2023-02-24T12:41:59;27.48;;;5.85;;
32918;SDS011;19280;42.646;21.150;2023-02-24T12:47:13;35.20;;;7.68;;
32918;SDS011;19280;42.646;21.150;2023-02-24T12:57:26;27.70;;;5.82;;
32918;SDS011;19280;42.646;21.150;2023-02-24T12:59:54;33.53;;;7.03;;
32918;SDS011;19280;42.646;21.150;2023-02-24T13:12:25;27.45;;;6.43;;
32918;SDS011;19280;42.646;21.150;2023-02-24T13:14:53;33.60;;;8.05;;
32918;SDS011;19280;42.646;21.150;2023-02-24T13:17:21;26.20;;;7.28;;
32918;SDS011;19280;42.646;21.150;2023-02-24T13:19:48;28.25;;;7.13;;
32918;SDS011;19280;42.646;21.150;2023-02-24T13:27:22;32.85;;;6.97;;
32918;SDS011;19280;42.646;21.150;2023-02-24T13:29:52;37.92;;;6.80;;
32918;SDS011;19280;42.646;21.150;2023-02-24T13:35:00;32.53;;;7.68;;
32918;SDS011;19280;42.646;21.150;2023-02-24T13:37:36;44.95;;;14.38;;
32918;SDS011;19280;42.646;21.150;2023-02-24T13:42:42;21.73;;;6.53;;
32918;SDS011;19280;42.646;21.150;2023-02-24T13:50:19;21.75;;;6.10;;
32918;SDS011;19280;42.646;21.150;2023-02-24T13:52:56;41.78;;;7.78;;
32918;SDS011;19280;42.646;21.150;2023-02-24T14:03:25;27.67;;;9.13;;
32918;SDS011;19280;42.646;21.150;2023-02-24T14:05:52;53.65;;;16.50;;
32918;SDS011;19280;42.646;21.150;2023-02-24T14:08:20;49.20;;;12.45;;
32918;SDS011;19280;42.646;21.150;2023-02-24T14:10:50;36.97;;;10.80;;
32918;SDS011;19280;42.646;21.150;2023-02-24T14:13:18;41.65;;;11.32;;
32918;SDS011;19280;42.646;21.150;2023-02-24T14:15:52;31.30;;;9.18;;
32918;SDS011;19280;42.646;21.150;2023-02-24T14:18:19;33.08;;;8.48;;
32918;SDS011;19280;42.646;21.150;2023-02-24T14:20:45;40.70;;;10.52;;
32918;SDS011;19280;42.646;21.150;2023-02-24T14:23:24;31.05;;;8.52;;
32918;SDS011;19280;42.646;21.150;2023-02-24T14:25:55;23.35;;;5.88;;
32918;SDS011;19280;42.646;21.150;2023-02-24T14:28:23;33.60;;;7.35;;
32918;SDS011;19280;42.646;21.150;2023-02-24T14:30:53;46.78;;;7.35;;
32918;SDS011;19280;42.646;21.150;2023-02-24T14:33:24;36.38;;;7.97;;
32918;SDS011;19280;42.646;21.150;2023-02-24T14:35:50;40.15;;;8.50;;
32918;SDS011;19280;42.646;21.150;2023-02-24T14:38:27;31.10;;;7.28;;
32918;SDS011;19280;42.646;21.150;2023-02-24T14:40:54;32.15;;;7.03;;
32918;SDS011;19280;42.646;21.150;2023-02-24T14:43:20;39.42;;;7.93;;
32918;SDS011;19280;42.646;21.150;2023-02-24T14:45:47;35.63;;;7.68;;
32918;SDS011;19280;42.646;21.150;2023-02-24T14:48:22;28.58;;;10.63;;
32918;SDS011;19280;42.646;21.150;2023-02-24T14:50:48;53.05;;;9.45;;
32918;SDS011;19280;42.646;21.150;2023-02-24T14:53:14;34.88;;;8.38;;
32918;SDS011;19280;42.646;21.150;2023-02-24T14:55:44;33.47;;;8.88;;
32918;SDS011;19280;42.646;21.150;2023-02-24T14:58:13;34.05;;;10.40;;
32918;SDS011;19280;42.646;21.150;2023-02-24T15:03:18;37.78;;;9.10;;
32918;SDS011;19280;42.646;21.150;2023-02-24T15:05:51;28.63;;;8.13;;
32918;SDS011;19280;42.646;21.150;2023-02-24T15:08:38;36.00;;;8.63;;
32918;SDS011;19280;42.646;21.150;2023-02-24T15:11:10;44.13;;;10.50;;
32918;SDS011;19280;42.646;21.150;2023-02-24T15:16:12;25.15;;;7.13;;
32918;SDS011;19280;42.646;21.150;2023-02-24T15:18:39;26.90;;;7.30;;
32918;SDS011;19280;42.646;21.150;2023-02-24T15:21:06;33.95;;;8.15;;
32918;SDS011;19280;42.646;21.150;2023-02-24T15:23:34;34.80;;;7.90;;
32918;SDS011;19280;42.646;21.150;2023-02-24T15:26:00;35.85;;;8.23;;
32918;SDS011;19280;42.646;21.150;2023-02-24T15:28:33;42.03;;;10.25;;
32918;SDS011;19280;42.646;21.150;2023-02-24T15:33:28;42.13;;;11.32;;
32918;SDS011;19280;42.646;21.150;2023-02-24T15:35:56;31.45;;;9.18;;
32918;SDS011;19280;42.646;21.150;2023-02-24T15:38:31;36.17;;;8.38;;
32918;SDS011;19280;42.646;21.150;2023-02-24T15:40:58;46.22;;;9.10;;
32918;SDS011;19280;42.646;21.150;2023-02-24T15:43:32;37.80;;;9.82;;
32918;SDS011;19280;42.646;21.150;2023-02-24T15:45:59;38.20;;;15.45;;
32918;SDS011;19280;42.646;21.150;2023-02-24T15:48:25;47.40;;;16.75;;
32918;SDS011;19280;42.646;21.150;2023-02-24T15:50:53;53.33;;;16.23;;
32918;SDS011;19280;42.646;21.150;2023-02-24T15:53:20;50.83;;;18.42;;
32918;SDS011;19280;42.646;21.150;2023-02-24T15:55:46;35.80;;;9.52;;
32918;SDS011;19280;42.646;21.150;2023-02-24T15:58:13;32.33;;;9.68;;
32918;SDS011;19280;42.646;21.150;2023-02-24T16:00:41;32.55;;;11.43;;
32918;SDS011;19280;42.646;21.150;2023-02-24T16:03:07;57.50;;;20.05;;
32918;SDS011;19280;42.646;21.150;2023-02-24T16:05:33;54.35;;;20.02;;
32918;SDS011;19280;42.646;21.150;2023-02-24T16:07:59;45.33;;;16.80;;
32918;SDS011;19280;42.646;21.150;2023-02-24T16:10:26;58.75;;;21.65;;
32918;SDS011;19280;42.646;21.150;2023-02-24T16:12:53;53.65;;;20.25;;
32918;SDS011;19280;42.646;21.150;2023-02-24T16:15:22;68.15;;;27.60;;
32918;SDS011;19280;42.646;21.150;2023-02-24T16:17:48;53.70;;;20.58;;
32918;SDS011;19280;42.646;21.150;2023-02-24T16:20:16;46.90;;;20.27;;
32918;SDS011;19280;42.646;21.150;2023-02-24T16:22:42;74.20;;;23.05;;
32918;SDS011;19280;42.646;21.150;2023-02-24T16:25:09;56.25;;;23.17;;
32918;SDS011;19280;42.646;21.150;2023-02-24T16:27:39;60.95;;;21.85;;
32918;SDS011;19280;42.646;21.150;2023-02-24T16:30:05;46.85;;;17.15;;
32918;SDS011;19280;42.646;21.150;2023-02-24T16:32:31;39.35;;;14.88;;
32918;SDS011;19280;42.646;21.150;2023-02-24T16:34:57;35.53;;;13.23;;
32918;SDS011;19280;42.646;21.150;2023-02-24T16:37:27;38.17;;;12.25;;
32918;SDS011;19280;42.646;21.150;2023-02-24T16:39:53;39.58;;;13.60;;
32918;SDS011;19280;42.646;21.150;2023-02-24T16:42:20;40.72;;;14.88;;
32918;SDS011;19280;42.646;21.150;2023-02-24T16:44:49;57.15;;;18.30;;
32918;SDS011;19280;42.646;21.150;2023-02-24T16:47:19;39.70;;;16.58;;
32918;SDS011;19280;42.646;21.150;2023-02-24T16:49:47;38.92;;;14.60;;
32918;SDS011;19280;42.646;21.150;2023-02-24T16:52:13;32.28;;;14.90;;
32918;SDS011;19280;42.646;21.150;2023-02-24T16:54:44;49.60;;;15.02;;
32918;SDS011;19280;42.646;21.150;2023-02-24T16:57:11;73.80;;;17.45;;